Time;durP1;ratioP1;P1;durP2;ratioP2;P2;SDS_P1;SDS_P2;PMS_P1;PMS_P2;Temp;Humidity;BMP_temperature;BMP_pressure;BME280_temperature;BME280_humidity;BME280_pressure;Samples;Min_cycle;Max_cycle;Signal;HPM_P1;HPM_P2
2022/04/27 00:00:33;;;;;;;9.70;2.30;;;10.00;72.30;;;;;;5090651;28;20086;-67
2022/04/27 00:03:00;;;;;;;6.53;1.98;;;10.00;72.30;;;;;;5090001;28;20036;-68
2022/04/27 00:05:25;;;;;;;7.47;1.95;;;10.00;72.20;;;;;;5106931;28;20043;-67
2022/04/27 00:07:51;;;;;;;8.90;3.40;;;10.00;72.20;;;;;;5108316;28;20046;-68
2022/04/27 00:10:19;;;;;;;8.57;1.98;;;10.10;72.40;;;;;;5101913;28;20404;-68
2022/04/27 00:12:45;;;;;;;7.78;1.83;;;10.10;72.50;;;;;;5089695;28;20048;-68
2022/04/27 00:15:12;;;;;;;6.60;1.67;;;10.10;72.50;;;;;;5099768;28;20156;-68
2022/04/27 00:17:38;;;;;;;8.05;2.25;;;10.10;72.50;;;;;;5091625;28;20089;-68
2022/04/27 00:20:05;;;;;;;6.28;2.80;;;10.20;72.50;;;;;;5101117;28;20446;-68
2022/04/27 00:22:30;;;;;;;7.72;2.22;;;10.20;72.50;;;;;;5090383;28;20058;-68
2022/04/27 00:25:00;;;;;;;7.03;2.00;;;10.20;72.50;;;;;;5089697;28;20492;-68
2022/04/27 00:27:27;;;;;;;4.65;1.70;;;10.20;72.40;;;;;;5104269;28;20087;-68
2022/04/27 00:29:53;;;;;;;6.88;1.70;;;10.20;72.10;;;;;;5091707;28;20126;-68
2022/04/27 00:32:19;;;;;;;8.80;1.50;;;10.20;71.90;;;;;;5107227;28;20069;-69
2022/04/27 00:34:44;;;;;;;5.13;1.92;;;10.20;71.50;;;;;;5108114;28;20105;-68
2022/04/27 00:37:10;;;;;;;4.78;1.75;;;10.10;71.30;;;;;;5103689;28;20515;-69
2022/04/27 00:39:35;;;;;;;7.55;1.80;;;10.10;71.30;;;;;;5091037;28;20040;-69
2022/04/27 00:42:21;;;;;;;8.20;2.08;;;10.10;71.40;;;;;;5101309;28;20118;-69
2022/04/27 00:44:48;;;;;;;9.40;1.98;;;10.10;71.40;;;;;;5092533;28;20052;-68
2022/04/27 00:47:15;;;;;;;3.88;1.60;;;10.10;71.50;;;;;;5104029;28;20416;-69
2022/04/27 00:49:44;;;;;;;5.80;1.83;;;10.10;71.40;;;;;;5092328;28;20492;-69
2022/04/27 00:52:12;;;;;;;5.18;1.55;;;10.00;71.30;;;;;;5094860;28;20040;-69
2022/04/27 00:54:50;;;;;;;7.40;1.52;;;10.00;71.00;;;;;;5092533;28;20503;-70
2022/04/27 00:57:16;;;;;;;8.55;1.83;;;10.00;70.80;;;;;;5097685;28;20391;-69
2022/04/27 00:59:41;;;;;;;5.95;1.83;;;10.00;70.70;;;;;;5109714;28;20130;-68
2022/04/27 01:02:07;;;;;;;4.78;1.73;;;10.00;71.20;;;;;;5092733;28;20135;-69
2022/04/27 01:04:35;;;;;;;9.63;1.60;;;9.90;71.60;;;;;;5109610;28;20114;-69
2022/04/27 01:07:01;;;;;;;6.20;1.58;;;9.90;71.70;;;;;;5109594;28;20059;-68
2022/04/27 01:09:28;;;;;;;7.53;1.60;;;9.80;71.50;;;;;;5093706;28;20044;-69
2022/04/27 01:11:55;;;;;;;5.15;2.33;;;9.80;71.40;;;;;;5093625;28;20078;-69
2022/04/27 01:14:22;;;;;;;9.85;1.77;;;9.70;71.50;;;;;;5107701;28;20046;-68
2022/04/27 01:16:56;;;;;;;3.72;1.33;;;9.80;71.60;;;;;;5098732;28;20047;-69
2022/04/27 01:19:24;;;;;;;5.68;1.95;;;9.80;71.70;;;;;;5099658;28;20031;-68
2022/04/27 01:21:50;;;;;;;7.13;2.70;;;9.70;71.80;;;;;;5110549;28;20101;-68
2022/04/27 01:24:24;;;;;;;4.68;1.70;;;9.70;71.80;;;;;;5111890;28;20048;-69
2022/04/27 01:26:50;;;;;;;4.85;1.73;;;9.70;71.90;;;;;;5111522;28;20053;-69
2022/04/27 01:29:17;;;;;;;9.48;2.20;;;9.70;71.80;;;;;;5094944;28;20046;-68
2022/04/27 01:31:43;;;;;;;4.30;2.13;;;9.70;71.60;;;;;;5106788;28;20555;-68
2022/04/27 01:34:09;;;;;;;5.55;1.60;;;9.70;71.50;;;;;;5105797;28;20100;-68
2022/04/27 01:36:35;;;;;;;10.48;1.60;;;9.70;71.30;;;;;;5093061;28;20116;-68
2022/04/27 01:39:01;;;;;;;3.95;1.48;;;9.60;71.00;;;;;;5106169;28;20035;-68
2022/04/27 01:41:26;;;;;;;3.45;1.52;;;9.60;70.50;;;;;;5112127;28;20115;-68
2022/04/27 01:43:52;;;;;;;5.72;1.58;;;9.70;70.00;;;;;;5111358;28;20063;-68
2022/04/27 01:46:17;;;;;;;4.82;1.50;;;9.70;69.40;;;;;;5112173;27;20399;-68
2022/04/27 01:48:43;;;;;;;2.40;0.98;;;9.70;69.10;;;;;;5099835;28;20056;-68
2022/04/27 01:51:09;;;;;;;4.78;1.20;;;9.60;66.00;;;;;;5106536;28;20055;-68
2022/04/27 01:56:19;;;;;;;2.28;1.05;;;9.60;64.80;;;;;;5111424;28;20047;-67
2022/04/27 01:58:45;;;;;;;4.75;1.30;;;9.70;65.10;;;;;;5082160;28;20478;-68
2022/04/27 02:01:12;;;;;;;5.57;1.30;;;9.80;64.90;;;;;;5091258;28;20166;-68
2022/04/27 02:03:40;;;;;;;5.32;1.40;;;9.90;64.80;;;;;;5096341;28;20384;-68
2022/04/27 02:06:07;;;;;;;4.10;1.40;;;9.90;64.80;;;;;;5109203;28;20048;-69
2022/04/27 02:08:32;;;;;;;3.40;1.00;;;9.90;65.00;;;;;;5099530;28;20382;-68
2022/04/27 02:10:58;;;;;;;3.67;1.58;;;10.00;64.90;;;;;;5091117;28;20063;-69
2022/04/27 02:13:26;;;;;;;5.88;1.52;;;10.00;64.90;;;;;;5091101;28;20036;-69
2022/04/27 02:15:52;;;;;;;5.63;1.40;;;10.00;64.80;;;;;;5094240;28;20400;-68
2022/04/27 02:18:19;;;;;;;5.60;1.60;;;10.00;65.00;;;;;;5110744;28;20080;-68
2022/04/27 02:20:45;;;;;;;3.35;1.63;;;10.10;65.20;;;;;;5109657;28;20066;-69
2022/04/27 02:23:11;;;;;;;5.47;1.98;;;10.10;65.30;;;;;;5111196;28;20046;-68
2022/04/27 02:25:36;;;;;;;5.50;1.60;;;10.00;65.40;;;;;;5106441;28;20040;-68
2022/04/27 02:28:02;;;;;;;6.75;1.65;;;10.00;65.60;;;;;;5094092;28;20044;-68
2022/04/27 02:30:28;;;;;;;5.40;1.63;;;10.10;65.80;;;;;;5108072;28;20044;-68
2022/04/27 02:32:53;;;;;;;5.07;1.65;;;10.10;66.00;;;;;;5090449;28;20412;-67
2022/04/27 02:35:19;;;;;;;2.95;1.50;;;10.10;66.10;;;;;;5098111;28;20046;-68
2022/04/27 02:37:45;;;;;;;5.80;2.03;;;10.00;66.30;;;;;;5111257;28;20043;-68
2022/04/27 02:40:11;;;;;;;9.75;1.98;;;10.00;66.40;;;;;;5108980;28;20189;-67
2022/04/27 02:42:37;;;;;;;3.70;1.73;;;10.00;66.40;;;;;;5111045;28;20544;-68
2022/04/27 02:45:03;;;;;;;4.47;1.73;;;10.00;66.40;;;;;;5096958;28;20031;-68
2022/04/27 02:47:29;;;;;;;4.50;1.67;;;10.00;66.60;;;;;;5101877;28;20051;-68
2022/04/27 02:52:39;;;;;;;4.10;1.70;;;10.00;66.90;;;;;;5090507;28;20048;-68
2022/04/27 02:55:05;;;;;;;5.97;2.22;;;10.00;67.20;;;;;;5092561;28;20420;-67
2022/04/27 02:57:30;;;;;;;7.13;2.88;;;10.00;67.30;;;;;;5110041;28;20035;-67
2022/04/27 02:59:56;;;;;;;4.93;1.73;;;10.00;67.40;;;;;;5099629;28;20436;-67
2022/04/27 03:02:21;;;;;;;4.65;1.63;;;9.90;67.60;;;;;;5099047;28;20040;-68
2022/04/27 03:04:47;;;;;;;4.68;1.88;;;10.00;67.60;;;;;;5103658;28;20043;-69
2022/04/27 03:07:12;;;;;;;4.00;2.15;;;10.00;67.60;;;;;;5097984;28;20092;-69
2022/04/27 03:09:38;;;;;;;4.07;1.88;;;10.00;67.50;;;;;;5108859;28;20051;-68
2022/04/27 03:12:04;;;;;;;4.38;2.00;;;10.00;67.50;;;;;;5109560;28;20036;-69
2022/04/27 03:14:30;;;;;;;3.88;1.92;;;10.00;67.60;;;;;;5107564;28;20575;-69
2022/04/27 03:16:57;;;;;;;5.35;1.80;;;10.00;67.50;;;;;;5093467;28;20047;-69
2022/04/27 03:19:22;;;;;;;6.38;1.88;;;10.00;67.20;;;;;;5110339;28;20220;-69
2022/04/27 03:21:48;;;;;;;6.07;2.10;;;10.00;67.00;;;;;;5110207;28;20127;-68
2022/04/27 03:24:14;;;;;;;11.45;2.10;;;10.00;66.80;;;;;;5106795;28;20544;-68
2022/04/27 03:26:40;;;;;;;9.65;2.60;;;10.00;66.60;;;;;;5108200;28;20048;-69
2022/04/27 03:29:06;;;;;;;6.55;2.22;;;10.00;66.30;;;;;;5109237;27;20043;-69
2022/04/27 03:31:32;;;;;;;5.07;2.20;;;10.00;66.20;;;;;;5099600;28;20096;-68
2022/04/27 03:33:58;;;;;;;10.05;2.38;;;10.00;66.30;;;;;;5107443;28;20056;-68
2022/04/27 03:36:24;;;;;;;4.97;2.30;;;10.10;66.20;;;;;;5098265;28;20055;-67
2022/04/27 03:38:49;;;;;;;4.22;2.38;;;10.00;66.30;;;;;;5090791;28;20112;-68
2022/04/27 03:41:19;;;;;;;4.05;2.55;;;10.00;66.30;;;;;;5089700;28;20036;-68
2022/04/27 03:43:45;;;;;;;5.47;2.13;;;10.00;66.10;;;;;;5097103;28;20071;-68
2022/04/27 03:46:11;;;;;;;5.85;2.63;;;10.00;66.20;;;;;;5099777;28;20040;-67
2022/04/27 03:48:36;;;;;;;6.40;2.28;;;10.00;66.20;;;;;;5088076;28;20704;-68
2022/04/27 03:51:02;;;;;;;4.80;2.50;;;10.10;66.00;;;;;;5089826;28;20139;-67
2022/04/27 03:53:27;;;;;;;6.15;2.15;;;10.00;65.90;;;;;;5093164;28;20055;-68
2022/04/27 03:55:53;;;;;;;7.20;2.50;;;10.10;65.80;;;;;;5095317;28;20143;-68
2022/04/27 03:58:19;;;;;;;4.18;2.25;;;10.10;65.80;;;;;;5093064;28;20385;-68
2022/04/27 04:00:45;;;;;;;4.55;2.38;;;10.00;65.40;;;;;;5107978;28;20180;-68
2022/04/27 04:03:11;;;;;;;4.57;2.33;;;10.00;65.30;;;;;;5109229;28;20070;-68
2022/04/27 04:05:37;;;;;;;4.97;2.72;;;10.00;65.40;;;;;;5095396;28;20047;-68
2022/04/27 04:08:03;;;;;;;5.28;2.42;;;10.00;65.40;;;;;;5089194;28;20036;-69
2022/04/27 04:10:29;;;;;;;5.57;2.55;;;10.00;65.60;;;;;;5089224;28;20455;-69
2022/04/27 04:12:55;;;;;;;6.10;2.88;;;10.00;66.00;;;;;;5088578;28;20377;-68
2022/04/27 04:15:20;;;;;;;6.88;3.47;;;10.00;66.30;;;;;;5107588;28;20044;-68
2022/04/27 04:17:46;;;;;;;3.97;2.63;;;10.10;66.70;;;;;;5089564;28;20043;-69
2022/04/27 04:20:13;;;;;;;7.65;3.05;;;10.10;66.80;;;;;;5088947;28;20097;-68
2022/04/27 04:22:40;;;;;;;5.35;2.65;;;10.10;66.80;;;;;;5090203;28;20420;-69
2022/04/27 04:30:35;;;;;;;4.18;2.72;;;10.00;66.00;;;;;;5095533;28;20071;-68
2022/04/27 04:33:00;;;;;;;4.10;2.88;;;10.10;66.00;;;;;;5112821;28;20070;-67
2022/04/27 04:35:26;;;;;;;10.50;3.97;;;10.00;65.80;;;;;;5107170;28;20043;-67
2022/04/27 04:37:51;;;;;;;5.18;2.72;;;10.00;65.70;;;;;;5111493;28;20039;-68
2022/04/27 04:40:17;;;;;;;8.00;3.55;;;10.00;65.50;;;;;;5108720;28;20054;-68
2022/04/27 04:42:42;;;;;;;5.18;2.65;;;10.00;65.40;;;;;;5092939;28;20040;-68
2022/04/27 04:45:08;;;;;;;4.97;2.67;;;10.10;65.40;;;;;;5096826;28;20040;-68
2022/04/27 04:47:34;;;;;;;6.82;3.03;;;10.00;65.40;;;;;;5101331;28;20054;-68
2022/04/27 04:49:59;;;;;;;3.95;2.17;;;10.00;65.40;;;;;;5092418;28;20373;-68
2022/04/27 04:52:26;;;;;;;3.83;2.42;;;10.00;65.40;;;;;;5095650;28;20093;-68
2022/04/27 04:54:52;;;;;;;5.10;2.55;;;10.10;65.40;;;;;;5099162;28;20036;-68
2022/04/27 04:57:17;;;;;;;9.02;3.63;;;10.00;65.40;;;;;;5111193;28;20397;-68
2022/04/27 04:59:43;;;;;;;5.65;2.75;;;10.10;65.30;;;;;;5102068;28;20112;-67
2022/04/27 05:02:08;;;;;;;4.22;2.83;;;10.00;65.40;;;;;;5105974;28;20104;-68
2022/04/27 05:04:34;;;;;;;11.93;4.22;;;10.00;65.50;;;;;;5098781;28;20040;-68
2022/04/27 05:06:59;;;;;;;7.95;3.42;;;10.00;65.50;;;;;;5092167;28;20508;-68
2022/04/27 05:09:25;;;;;;;8.32;3.03;;;10.00;65.60;;;;;;5112779;28;20051;-68
2022/04/27 05:11:50;;;;;;;7.78;3.08;;;10.00;65.70;;;;;;5112772;28;20412;-69
2022/04/27 05:14:16;;;;;;;7.63;2.80;;;10.00;65.90;;;;;;5112601;28;20040;-69
2022/04/27 05:16:41;;;;;;;5.43;2.55;;;10.00;66.20;;;;;;5112678;28;20032;-69
2022/04/27 05:19:07;;;;;;;7.32;3.58;;;10.00;66.30;;;;;;5112115;28;20520;-69
2022/04/27 05:21:33;;;;;;;7.05;3.65;;;10.00;66.50;;;;;;5106766;28;20043;-69
2022/04/27 05:23:58;;;;;;;7.75;3.30;;;10.00;66.70;;;;;;5107099;28;20032;-68
2022/04/27 05:26:24;;;;;;;5.20;3.17;;;10.00;66.80;;;;;;5104631;28;20088;-68
2022/04/27 05:34:17;;;;;;;5.40;3.45;;;10.00;67.20;;;;;;5094382;28;20043;-66
2022/04/27 05:36:43;;;;;;;11.82;4.30;;;10.00;67.40;;;;;;5091582;28;20097;-69
2022/04/27 05:39:08;;;;;;;8.13;3.30;;;10.10;67.40;;;;;;5091174;28;20127;-68
2022/04/27 05:41:34;;;;;;;6.63;2.92;;;10.10;67.60;;;;;;5090182;28;20447;-68
2022/04/27 05:44:02;;;;;;;7.90;3.45;;;10.10;67.60;;;;;;5091785;28;20044;-68
2022/04/27 05:46:29;;;;;;;9.57;3.63;;;10.20;67.70;;;;;;5091625;28;20117;-68
2022/04/27 05:48:54;;;;;;;8.20;3.55;;;10.20;67.70;;;;;;5091646;28;20067;-68
2022/04/27 05:51:20;;;;;;;5.85;3.10;;;10.20;67.70;;;;;;5091418;28;20055;-69
2022/04/27 05:53:46;;;;;;;10.00;3.45;;;10.20;67.90;;;;;;5091177;28;20131;-69
2022/04/27 05:56:12;;;;;;;7.95;3.38;;;10.20;67.90;;;;;;5091630;28;20044;-69
2022/04/27 05:58:38;;;;;;;8.68;3.47;;;10.20;68.00;;;;;;5091571;28;20048;-69
2022/04/27 06:01:04;;;;;;;11.02;4.13;;;10.00;68.70;;;;;;5091711;28;20096;-68
2022/04/27 06:03:30;;;;;;;13.65;3.72;;;10.00;68.90;;;;;;5091079;28;20200;-69
2022/04/27 06:05:55;;;;;;;8.27;3.97;;;9.90;69.10;;;;;;5091175;28;20083;-69
2022/04/27 06:08:21;;;;;;;7.90;4.03;;;9.90;69.30;;;;;;5090109;28;20048;-68
2022/04/27 06:10:47;;;;;;;11.27;4.43;;;9.90;69.10;;;;;;5089878;28;20048;-69
2022/04/27 06:13:13;;;;;;;11.95;6.53;;;9.80;69.60;;;;;;5091212;28;20047;-68
2022/04/27 06:15:39;;;;;;;9.27;4.03;;;9.70;70.20;;;;;;5091191;28;20386;-69
2022/04/27 06:18:05;;;;;;;10.93;3.80;;;9.70;70.40;;;;;;5091286;28;20048;-69
2022/04/27 06:20:30;;;;;;;16.27;6.22;;;9.70;70.80;;;;;;5090887;28;20489;-68
2022/04/27 06:22:57;;;;;;;10.02;3.90;;;9.70;70.90;;;;;;5090522;28;20521;-69
2022/04/27 06:25:25;;;;;;;6.95;3.35;;;9.70;71.00;;;;;;5091135;28;20047;-68
2022/04/27 06:27:51;;;;;;;18.77;4.30;;;9.80;71.00;;;;;;5072626;28;20052;-68
2022/04/27 06:30:16;;;;;;;15.27;4.38;;;9.70;71.50;;;;;;5090839;28;20058;-69
2022/04/27 06:32:42;;;;;;;16.88;3.90;;;9.70;71.60;;;;;;5090967;28;20036;-69
2022/04/27 06:35:12;;;;;;;13.15;3.95;;;9.70;71.40;;;;;;5090161;28;20121;-67
2022/04/27 06:37:38;;;;;;;17.52;5.32;;;9.70;71.20;;;;;;5105420;28;20049;-68
2022/04/27 06:40:05;;;;;;;12.65;3.20;;;9.60;72.40;;;;;;5101582;28;20134;-68
2022/04/27 06:42:31;;;;;;;17.00;3.60;;;9.60;72.20;;;;;;5090279;28;20047;-68
2022/04/27 06:45:00;;;;;;;13.25;3.50;;;9.60;72.20;;;;;;5095270;28;20040;-68
2022/04/27 06:47:25;;;;;;;22.20;4.70;;;9.60;72.10;;;;;;5108305;28;20392;-68
2022/04/27 06:49:51;;;;;;;17.90;2.95;;;9.60;72.00;;;;;;5095826;28;20051;-69
2022/04/27 06:52:17;;;;;;;16.13;2.45;;;9.60;71.80;;;;;;5105702;28;20388;-69
2022/04/27 06:54:42;;;;;;;15.68;3.30;;;9.60;71.60;;;;;;5096413;28;20046;-69
2022/04/27 06:57:08;;;;;;;10.13;2.70;;;9.60;71.30;;;;;;5103586;28;20043;-67
2022/04/27 06:59:34;;;;;;;15.93;2.70;;;9.60;71.00;;;;;;5108782;28;20122;-68
2022/04/27 07:02:00;;;;;;;21.10;3.65;;;9.60;70.60;;;;;;5110500;28;20460;-67
2022/04/27 07:04:26;;;;;;;16.35;2.95;;;9.60;70.20;;;;;;5093990;28;20555;-67
2022/04/27 07:06:52;;;;;;;12.90;3.08;;;9.60;69.90;;;;;;5110231;28;20091;-68
2022/04/27 07:09:18;;;;;;;13.20;2.65;;;9.70;69.90;;;;;;5101013;28;20071;-67
2022/04/27 07:11:44;;;;;;;19.27;3.42;;;9.70;69.90;;;;;;5090705;28;20444;-67
2022/04/27 07:14:11;;;;;;;12.80;3.47;;;9.70;69.70;;;;;;5105720;28;20055;-66
2022/04/27 07:16:37;;;;;;;14.25;3.58;;;9.80;69.60;;;;;;5107767;28;20132;-67
2022/04/27 07:19:03;;;;;;;14.60;3.50;;;9.80;69.50;;;;;;5090056;28;20130;-67
2022/04/27 07:21:28;;;;;;;9.45;2.47;;;9.80;69.30;;;;;;5110369;28;20040;-66
2022/04/27 07:23:56;;;;;;;12.10;2.88;;;9.80;69.30;;;;;;5110273;28;20120;-67
2022/04/27 07:26:21;;;;;;;13.15;2.55;;;9.80;69.30;;;;;;5107920;28;20055;-67
2022/04/27 07:28:47;;;;;;;17.95;3.08;;;9.80;69.20;;;;;;5110147;28;20043;-67
2022/04/27 07:31:12;;;;;;;26.42;4.72;;;9.80;69.20;;;;;;5110394;28;20039;-69
2022/04/27 07:33:38;;;;;;;14.63;2.72;;;9.80;69.30;;;;;;5103192;28;20134;-67
2022/04/27 07:36:06;;;;;;;16.02;3.80;;;9.90;69.30;;;;;;5090257;28;20101;-68
2022/04/27 07:38:32;;;;;;;16.67;3.10;;;9.90;69.10;;;;;;5089985;28;20055;-68
2022/04/27 07:40:57;;;;;;;22.08;3.50;;;9.90;69.10;;;;;;5105829;28;20040;-68
2022/04/27 07:43:23;;;;;;;13.10;3.03;;;9.90;68.80;;;;;;5109397;28;20094;-68
2022/04/27 07:45:48;;;;;;;16.40;2.65;;;10.00;68.70;;;;;;5109508;28;20085;-67
2022/04/27 07:48:14;;;;;;;15.65;3.15;;;10.00;68.50;;;;;;5101239;28;20071;-67
2022/04/27 07:50:40;;;;;;;11.85;3.25;;;10.10;68.20;;;;;;5104987;28;20048;-66
2022/04/27 07:53:06;;;;;;;14.25;3.42;;;10.10;68.20;;;;;;5109326;28;20112;-66
2022/04/27 07:55:31;;;;;;;16.20;2.60;;;10.10;68.00;;;;;;5109432;28;20048;-66
2022/04/27 07:57:57;;;;;;;15.45;3.00;;;10.10;67.80;;;;;;5107679;28;20067;-66
2022/04/27 08:00:22;;;;;;;15.35;3.28;;;10.20;67.70;;;;;;5109344;28;20047;-66
2022/04/27 08:02:51;;;;;;;8.40;2.08;;;10.20;67.00;;;;;;5108498;28;20773;-66
2022/04/27 08:05:16;;;;;;;15.73;2.28;;;10.20;66.60;;;;;;5103084;28;20040;-66
2022/04/27 08:07:44;;;;;;;12.75;2.13;;;10.20;66.20;;;;;;5105571;28;20055;-66
2022/04/27 08:10:15;;;;;;;10.15;2.60;;;10.20;65.80;;;;;;5107001;28;20047;-65
2022/04/27 08:12:43;;;;;;;11.30;2.05;;;10.30;65.60;;;;;;5092675;28;20059;-66
2022/04/27 08:15:09;;;;;;;15.63;2.63;;;10.40;65.40;;;;;;5092755;28;20407;-65
2022/04/27 08:17:35;;;;;;;15.82;2.65;;;10.50;64.90;;;;;;5108911;28;20040;-66
2022/04/27 08:22:46;;;;;;;19.50;2.25;;;10.50;63.60;;;;;;5106837;28;20047;-66
2022/04/27 08:25:11;;;;;;;14.38;3.17;;;10.40;63.60;;;;;;5094933;28;20047;-66
2022/04/27 08:27:37;;;;;;;16.92;3.45;;;10.50;63.40;;;;;;5088736;28;20423;-66
2022/04/27 08:30:04;;;;;;;14.55;2.63;;;10.50;63.50;;;;;;5104586;28;20047;-66
2022/04/27 08:32:29;;;;;;;15.63;3.25;;;10.60;63.40;;;;;;5098487;28;20055;-66
2022/04/27 08:34:55;;;;;;;17.10;2.75;;;10.60;63.50;;;;;;5091685;28;20480;-67
2022/04/27 08:37:21;;;;;;;13.65;3.47;;;10.70;63.10;;;;;;5108886;28;20044;-66
2022/04/27 08:39:46;;;;;;;14.10;2.67;;;10.80;62.30;;;;;;5098830;28;20472;-66
2022/04/27 08:42:12;;;;;;;16.10;2.25;;;10.80;62.20;;;;;;5091671;28;20043;-66
2022/04/27 08:44:38;;;;;;;15.65;3.50;;;10.80;62.10;;;;;;5101037;28;20488;-67
2022/04/27 08:47:09;;;;;;;11.73;2.15;;;10.90;61.60;;;;;;5104748;28;20052;-67
2022/04/27 08:49:34;;;;;;;15.85;2.05;;;10.90;61.10;;;;;;5088677;28;20047;-67
2022/04/27 08:52:01;;;;;;;13.68;2.38;;;11.00;61.10;;;;;;5088401;28;20048;-67
2022/04/27 08:54:28;;;;;;;9.95;1.95;;;11.00;60.60;;;;;;5102524;28;20395;-67
2022/04/27 08:56:53;;;;;;;13.75;2.90;;;11.10;60.60;;;;;;5108535;28;20043;-66
2022/04/27 08:59:19;;;;;;;13.23;2.05;;;11.10;60.20;;;;;;5108551;28;20036;-67
2022/04/27 09:01:45;;;;;;;9.73;2.00;;;11.20;60.10;;;;;;5107414;28;20051;-69
2022/04/27 09:04:15;;;;;;;10.15;2.95;;;11.20;60.10;;;;;;5107658;28;20416;-69
2022/04/27 09:06:41;;;;;;;10.63;1.77;;;11.30;59.90;;;;;;5100803;28;20508;-68
2022/04/27 09:09:13;;;;;;;9.60;1.90;;;11.40;60.20;;;;;;5107578;28;20067;-68
2022/04/27 09:11:39;;;;;;;9.27;2.20;;;11.50;60.30;;;;;;5092649;28;20902;-68
2022/04/27 09:14:07;;;;;;;12.55;2.40;;;11.60;60.10;;;;;;5106801;28;20051;-68
2022/04/27 09:22:07;;;;;;;9.90;1.80;;;11.70;59.60;;;;;;5099367;28;20130;-67
2022/04/27 09:24:53;;;;;;;12.35;2.65;;;11.70;59.40;;;;;;5111741;28;20043;-67
2022/04/27 09:27:23;;;;;;;12.70;2.20;;;11.70;58.70;;;;;;5112348;27;20052;-69
2022/04/27 09:30:01;;;;;;;17.83;2.92;;;11.60;59.40;;;;;;5111829;28;20079;-67
2022/04/27 09:32:28;;;;;;;9.75;3.10;;;11.60;59.50;;;;;;5111792;28;20059;-66
2022/04/27 09:34:55;;;;;;;10.65;1.60;;;11.60;60.00;;;;;;5103448;28;20045;-68
2022/04/27 09:37:24;;;;;;;11.90;2.25;;;11.70;60.10;;;;;;5091560;28;20160;-67
2022/04/27 09:40:11;;;;;;;11.10;2.75;;;11.70;60.10;;;;;;5092142;28;20044;-66
2022/04/27 09:42:43;;;;;;;11.40;2.17;;;11.70;59.30;;;;;;5091844;28;20089;-67
2022/04/27 09:45:20;;;;;;;18.38;3.13;;;11.60;59.60;;;;;;5092009;28;20493;-67
2022/04/27 09:47:57;;;;;;;15.00;2.83;;;11.60;59.30;;;;;;5101962;28;20404;-67
2022/04/27 09:50:23;;;;;;;13.07;2.55;;;11.60;59.20;;;;;;5101162;28;20523;-69
2022/04/27 09:52:49;;;;;;;11.98;2.10;;;11.50;59.40;;;;;;5111812;28;20048;-66
2022/04/27 09:55:14;;;;;;;7.03;1.70;;;11.50;59.30;;;;;;5094868;28;20051;-67
2022/04/27 09:57:41;;;;;;;13.95;2.65;;;11.60;59.40;;;;;;5097572;28;20047;-68
2022/04/27 10:00:09;;;;;;;11.77;1.80;;;11.60;59.50;;;;;;5093187;28;20097;-68
2022/04/27 10:02:37;;;;;;;21.13;3.63;;;11.60;59.60;;;;;;5094154;28;20629;-68
2022/04/27 10:05:04;;;;;;;11.40;2.13;;;11.70;59.50;;;;;;5095808;28;20032;-68
2022/04/27 10:07:32;;;;;;;13.38;2.30;;;11.80;59.30;;;;;;5108687;28;20059;-68
2022/04/27 10:09:58;;;;;;;7.28;1.70;;;11.80;59.00;;;;;;5104205;28;20048;-68
2022/04/27 10:12:24;;;;;;;11.27;2.20;;;11.80;59.10;;;;;;5091036;28;20477;-68
2022/04/27 10:14:50;;;;;;;12.52;2.30;;;11.90;58.90;;;;;;5111254;28;20108;-68
2022/04/27 10:17:16;;;;;;;10.27;2.28;;;11.90;58.70;;;;;;5110990;28;20500;-68
2022/04/27 10:19:49;;;;;;;8.77;2.70;;;12.00;58.90;;;;;;5110482;28;20051;-67
2022/04/27 10:22:30;;;;;;;10.82;2.53;;;12.10;58.20;;;;;;5106401;28;20036;-68
2022/04/27 10:24:57;;;;;;;12.13;2.22;;;12.10;57.50;;;;;;5092066;28;20040;-68
2022/04/27 10:27:36;;;;;;;10.95;2.13;;;12.10;57.30;;;;;;5089992;28;20048;-69
2022/04/27 10:30:10;;;;;;;8.15;2.15;;;12.10;57.30;;;;;;5089929;28;20104;-69
2022/04/27 10:32:45;;;;;;;12.15;2.33;;;12.00;57.50;;;;;;5091200;28;20040;-69
2022/04/27 10:35:30;;;;;;;14.07;1.95;;;12.00;57.60;;;;;;5090326;28;20074;-68
2022/04/27 10:38:02;;;;;;;15.82;2.05;;;12.10;57.30;;;;;;5090387;28;20052;-68
2022/04/27 10:40:30;;;;;;;9.60;2.38;;;12.10;57.20;;;;;;5089254;28;20044;-68
2022/04/27 10:43:02;;;;;;;14.95;2.85;;;12.10;57.60;;;;;;5090734;28;20051;-68
2022/04/27 10:45:28;;;;;;;20.58;2.80;;;12.10;57.30;;;;;;5090231;28;20059;-69
2022/04/27 10:47:53;;;;;;;12.68;2.22;;;12.10;57.20;;;;;;5090268;28;20044;-68
2022/04/27 10:50:25;;;;;;;13.02;2.67;;;12.10;56.90;;;;;;5090499;28;20044;-69
2022/04/27 10:52:52;;;;;;;11.25;1.83;;;12.10;57.00;;;;;;5090169;28;20044;-68
2022/04/27 10:55:37;;;;;;;8.43;2.40;;;12.10;57.00;;;;;;5096489;28;20090;-67
2022/04/27 10:58:34;;;;;;;12.25;2.35;;;12.20;56.70;;;;;;5092420;28;20473;-68
2022/04/27 11:01:03;;;;;;;18.38;2.55;;;12.10;56.10;;;;;;5097843;28;20036;-68
2022/04/27 11:03:36;;;;;;;10.02;2.20;;;11.80;56.50;;;;;;5109816;28;20035;-67
2022/04/27 11:06:07;;;;;;;9.82;1.80;;;11.80;56.70;;;;;;5102998;28;20063;-69
2022/04/27 11:08:57;;;;;;;8.20;1.67;;;11.80;56.70;;;;;;5089776;28;20510;-68
2022/04/27 11:11:28;;;;;;;8.38;1.80;;;11.90;56.70;;;;;;5099151;28;20058;-68
2022/04/27 11:14:03;;;;;;;5.55;1.40;;;11.90;56.90;;;;;;5106114;28;20043;-67
2022/04/27 11:16:28;;;;;;;11.27;2.55;;;11.90;56.50;;;;;;5109073;28;20051;-70
2022/04/27 11:19:00;;;;;;;11.88;1.92;;;11.90;56.70;;;;;;5108453;28;20339;-70
2022/04/27 11:21:31;;;;;;;14.20;2.40;;;12.00;56.70;;;;;;5105618;28;20082;-69
2022/04/27 11:24:00;;;;;;;11.77;2.30;;;12.10;56.70;;;;;;5109747;28;20158;-69
2022/04/27 11:26:27;;;;;;;13.55;3.58;;;12.20;56.50;;;;;;5108861;28;20043;-67
2022/04/27 11:28:54;;;;;;;9.95;2.00;;;12.20;56.10;;;;;;5108093;28;20039;-68
2022/04/27 11:31:20;;;;;;;10.18;1.98;;;12.30;56.10;;;;;;5097798;27;20044;-68
2022/04/27 11:33:45;;;;;;;10.13;2.30;;;12.40;56.00;;;;;;5098097;28;20048;-67
2022/04/27 11:36:22;;;;;;;13.35;2.47;;;12.40;55.10;;;;;;5104164;28;20062;-68
2022/04/27 11:38:48;;;;;;;15.27;2.53;;;12.40;54.80;;;;;;5106829;28;20074;-68
2022/04/27 11:41:19;;;;;;;8.18;2.28;;;12.40;55.20;;;;;;5096583;28;20044;-68
2022/04/27 11:43:49;;;;;;;12.13;3.97;;;12.50;55.10;;;;;;5109506;28;20058;-69
2022/04/27 11:46:15;;;;;;;14.45;1.95;;;12.30;54.90;;;;;;5109436;28;20450;-68
2022/04/27 11:48:50;;;;;;;9.13;2.25;;;12.40;54.80;;;;;;5109097;28;20040;-69
2022/04/27 11:51:17;;;;;;;11.15;2.63;;;12.50;55.00;;;;;;5107978;28;20414;-68
2022/04/27 11:53:45;;;;;;;9.93;2.35;;;12.40;55.10;;;;;;5101056;28;20138;-68
2022/04/27 11:56:11;;;;;;;8.75;2.08;;;12.40;54.90;;;;;;5103027;28;20032;-68
2022/04/27 11:58:36;;;;;;;9.15;2.55;;;12.30;54.80;;;;;;5094193;28;20325;-68
2022/04/27 12:01:02;;;;;;;12.00;2.20;;;12.30;54.50;;;;;;5099729;28;20555;-68
2022/04/27 12:03:30;;;;;;;10.98;2.42;;;12.30;54.60;;;;;;5101283;28;20453;-67
2022/04/27 12:05:56;;;;;;;13.70;2.55;;;12.20;54.40;;;;;;5088743;28;20462;-67
2022/04/27 12:08:26;;;;;;;11.65;2.00;;;12.30;54.00;;;;;;5099813;28;20574;-69
2022/04/27 12:10:52;;;;;;;16.27;2.38;;;12.30;54.10;;;;;;5099080;28;20040;-68
2022/04/27 12:13:20;;;;;;;7.68;2.10;;;12.30;54.10;;;;;;5098891;28;20039;-68
2022/04/27 12:15:49;;;;;;;11.23;2.15;;;12.30;53.30;;;;;;5101298;28;20489;-69
2022/04/27 12:18:15;;;;;;;9.10;2.10;;;12.30;53.50;;;;;;5101541;28;20056;-68
2022/04/27 12:20:42;;;;;;;8.30;1.80;;;12.40;53.90;;;;;;5088399;28;20090;-69
2022/04/27 12:23:23;;;;;;;11.38;1.83;;;12.50;54.00;;;;;;5088762;28;20042;-71
2022/04/27 12:25:55;;;;;;;9.52;2.00;;;12.60;53.70;;;;;;5101339;28;20043;-69
2022/04/27 12:28:23;;;;;;;10.52;2.22;;;12.50;53.40;;;;;;5094590;28;20048;-68
2022/04/27 12:30:57;;;;;;;9.27;1.83;;;12.50;53.50;;;;;;5087154;28;20743;-68
2022/04/27 12:33:32;;;;;;;8.05;2.05;;;12.50;53.40;;;;;;5088955;28;20070;-68
2022/04/27 12:39:13;;;;;;;16.65;3.45;;;12.20;53.90;;;;;;5088663;28;20109;-68
2022/04/27 12:41:44;;;;;;;6.65;1.60;;;12.30;54.40;;;;;;5088435;28;20054;-68
2022/04/27 12:44:10;;;;;;;9.18;2.25;;;12.30;54.00;;;;;;5090132;28;20098;-68
2022/04/27 12:46:38;;;;;;;18.45;2.60;;;12.30;54.00;;;;;;5092763;28;20072;-68
2022/04/27 12:49:07;;;;;;;8.18;2.00;;;12.50;53.70;;;;;;5093094;28;20048;-68
2022/04/27 12:51:35;;;;;;;16.67;4.22;;;12.60;53.50;;;;;;5092684;28;20131;-68
2022/04/27 12:54:02;;;;;;;13.15;3.13;;;12.60;53.60;;;;;;5092971;28;20044;-68
2022/04/27 12:56:35;;;;;;;15.13;2.28;;;12.70;53.20;;;;;;5092174;28;20048;-68
2022/04/27 12:59:05;;;;;;;8.90;2.38;;;12.90;52.20;;;;;;5092801;28;20079;-68
2022/04/27 13:01:31;;;;;;;6.45;1.98;;;12.90;52.40;;;;;;5092805;28;20052;-68
2022/04/27 13:03:57;;;;;;;9.63;1.70;;;12.80;52.20;;;;;;5092777;28;20386;-68
2022/04/27 13:06:23;;;;;;;8.02;1.95;;;12.80;52.40;;;;;;5092038;28;20056;-68
2022/04/27 13:08:49;;;;;;;8.13;1.35;;;12.90;52.50;;;;;;5092564;28;20117;-68
2022/04/27 13:13:59;;;;;;;8.32;1.75;;;13.10;52.50;;;;;;5092388;28;20052;-68
2022/04/27 13:16:25;;;;;;;8.23;2.20;;;13.10;52.70;;;;;;5092465;28;20047;-69